Adams, Wisconsin
Current Conditions -  °F | °C
As of 7:19 PM on Wednesday 26 Nov 2014 (Local Time) from KVOK Reporting Station
Light Snow Light Snow  
Wind Chill: 15°   Ceiling: 2400
Heat Index: 21°   Visibility: 6mi
Dew Point: 21°   Wind: 5mph
Humidity: 100%   Direction: 300°WNW
Pressure: 30.2"   Gusts: NA
Location:  43.96°N, 89.82°W
Report Text: KVOK 270119Z AUTO 30004KT 6SM R27/5000FT -SN BR BKN024 OVC034 M06/M06 A3020 RMK AO2 SNB0104 CIG 024V034 BKN V SCT
Loading
Personal Weather Stations






























Interactive Weather Map New forecast layout! Learn more

10-Day Weather Forecast

Advertisements
Track Severe Weather on mobile